Time;durP1;ratioP1;P1;durP2;ratioP2;P2;SDS_P1;SDS_P2;PMS_P1;PMS_P2;Temp;Humidity;BMP_temperature;BMP_pressure;BME280_temperature;BME280_humidity;BME280_pressure;Samples;Min_cycle;Max_cycle;Signal;HPM_P1;HPM_P2
2023/03/08 00:00:48;;;;;;;;;;;;;;;;;;5073846;28;20339;-46
2023/03/08 00:03:14;;;;;;;;;;;;;;;;;;5073512;28;19904;-46
2023/03/08 00:05:40;;;;;;;;;;;;;;;;;;5073497;28;19931;-45
2023/03/08 00:08:06;;;;;;;;;;;;;;;;;;5074265;28;19916;-45
2023/03/08 00:10:31;;;;;;;;;;;;;;;;;;5072357;28;20509;-47
2023/03/08 00:12:57;;;;;;;;;;;;;;;;;;5074057;28;19915;-45
2023/03/08 00:15:23;;;;;;;;;;;;;;;;;;5072882;28;19950;-45
2023/03/08 00:17:49;;;;;;;;;;;;;;;;;;5074082;28;19908;-45
2023/03/08 00:20:15;;;;;;;;;;;;;;;;;;5072676;28;19916;-44
2023/03/08 00:22:41;;;;;;;;;;;;;;;;;;5074158;28;20350;-45
2023/03/08 00:25:07;;;;;;;;;;;;;;;;;;5073630;28;19904;-45
2023/03/08 00:27:33;;;;;;;;;;;;;;;;;;5073310;28;19939;-48
2023/03/08 00:29:59;;;;;;;;;;;;;;;;;;5086208;28;19951;-46
2023/03/08 00:32:25;;;;;;;;;;;;;;;;;;5073107;28;20408;-45
2023/03/08 00:34:51;;;;;;;;;;;;;;;;;;5063132;28;19904;-49
2023/03/08 00:37:17;;;;;;;;;;;;;;;;;;5072927;28;19904;-45
2023/03/08 00:39:43;;;;;;;;;;;;;;;;;;5073107;28;19966;-45
2023/03/08 00:42:09;;;;;;;;;;;;;;;;;;5074054;28;19904;-47
2023/03/08 00:44:34;;;;;;;;;;;;;;;;;;5072742;28;20290;-44
2023/03/08 00:47:00;;;;;;;;;;;;;;;;;;5079332;28;19959;-46
2023/03/08 00:49:26;;;;;;;;;;;;;;;;;;5092687;28;20326;-46
2023/03/08 00:51:52;;;;;;;;;;;;;;;;;;5093627;28;19911;-47
2023/03/08 00:54:18;;;;;;;;;;;;;;;;;;5077973;28;19912;-44
2023/03/08 00:56:44;;;;;;;;;;;;;;;;;;5073713;28;19926;-44
2023/03/08 00:59:10;;;;;;;;;;;;;;;;;;5073682;28;19954;-44
2023/03/08 01:01:35;;;;;;;;;;;;;;;;;;5072543;28;20355;-45
2023/03/08 01:04:02;;;;;;;;;;;;;;;;;;5073571;28;19909;-44
2023/03/08 01:06:28;;;;;;;;;;;;;;;;;;5072141;28;19905;-47
2023/03/08 01:08:54;;;;;;;;;;;;;;;;;;5073483;28;19904;-45
2023/03/08 01:11:20;;;;;;;;;;;;;;;;;;5066350;28;19965;-44
2023/03/08 01:13:46;;;;;;;;;;;;;;;;;;5073154;28;19951;-45
2023/03/08 01:16:11;;;;;;;;;;;;;;;;;;5071838;28;20259;-46
2023/03/08 01:18:37;;;;;;;;;;;;;;;;;;5073049;28;19959;-44
2023/03/08 01:21:03;;;;;;;;;;;;;;;;;;5073151;28;20374;-45
2023/03/08 01:23:29;;;;;;;;;;;;;;;;;;5071889;28;19915;-49
2023/03/08 01:25:55;;;;;;;;;;;;;;;;;;5072445;28;19998;-44
2023/03/08 01:28:21;;;;;;;;;;;;;;;;;;5066654;28;19960;-46
2023/03/08 01:30:47;;;;;;;;;;;;;;;;;;5059292;28;19908;-44
2023/03/08 01:33:12;;;;;;;;;;;;;;;;;;5067968;28;20395;-45
2023/03/08 01:35:38;;;;;;;;;;;;;;;;;;5055351;28;19912;-45
2023/03/08 01:38:04;;;;;;;;;;;;;;;;;;5072565;28;19904;-46
2023/03/08 01:40:30;;;;;;;;;;;;;;;;;;5071596;28;20498;-45
2023/03/08 01:42:56;;;;;;;;;;;;;;;;;;5072238;28;19904;-46
2023/03/08 01:45:22;;;;;;;;;;;;;;;;;;5071383;28;19904;-47
2023/03/08 01:47:48;;;;;;;;;;;;;;;;;;5044482;28;20007;-45
2023/03/08 01:50:14;;;;;;;;;;;;;;;;;;5051059;28;19916;-45
2023/03/08 01:52:39;;;;;;;;;;;;;;;;;;5062945;28;19952;-46
2023/03/08 01:55:05;;;;;;;;;;;;;;;;;;5052198;28;19913;-45
2023/03/08 01:57:31;;;;;;;;;;;;;;;;;;5051653;28;19907;-48
2023/03/08 01:59:57;;;;;;;;;;;;;;;;;;5051764;28;19904;-45
2023/03/08 02:02:23;;;;;;;;;;;;;;;;;;5050933;28;19943;-44
2023/03/08 02:04:49;;;;;;;;;;;;;;;;;;5051753;28;20367;-44
2023/03/08 02:07:15;;;;;;;;;;;;;;;;;;5051555;28;19912;-44
2023/03/08 02:09:41;;;;;;;;;;;;;;;;;;5051093;28;20002;-45
2023/03/08 02:12:06;;;;;;;;;;;;;;;;;;5051749;28;20270;-44
2023/03/08 02:14:32;;;;;;;;;;;;;;;;;;5050567;28;19905;-43
2023/03/08 02:16:58;;;;;;;;;;;;;;;;;;5051902;28;19911;-44
2023/03/08 02:19:24;;;;;;;;;;;;;;;;;;5050665;28;19930;-44
2023/03/08 02:21:50;;;;;;;;;;;;;;;;;;5052188;28;19908;-44
2023/03/08 02:24:16;;;;;;;;;;;;;;;;;;5039948;28;19995;-46
2023/03/08 02:26:42;;;;;;;;;;;;;;;;;;5051848;28;19927;-43
2023/03/08 02:29:08;;;;;;;;;;;;;;;;;;5059309;28;19904;-44
2023/03/08 02:31:33;;;;;;;;;;;;;;;;;;5070802;28;20505;-44
2023/03/08 02:33:59;;;;;;;;;;;;;;;;;;5071961;28;19912;-44
2023/03/08 02:36:25;;;;;;;;;;;;;;;;;;5070766;28;19908;-44
2023/03/08 02:38:51;;;;;;;;;;;;;;;;;;5072220;28;19912;-44
2023/03/08 02:41:17;;;;;;;;;;;;;;;;;;5070936;28;19950;-44
2023/03/08 02:43:43;;;;;;;;;;;;;;;;;;5071887;28;19927;-44
2023/03/08 02:46:09;;;;;;;;;;;;;;;;;;5056573;28;20351;-44
2023/03/08 02:48:35;;;;;;;;;;;;;;;;;;5070814;28;19913;-44
2023/03/08 02:51:00;;;;;;;;;;;;;;;;;;5053567;28;19959;-46
2023/03/08 02:53:26;;;;;;;;;;;;;;;;;;5070682;28;19908;-44
2023/03/08 02:55:52;;;;;;;;;;;;;;;;;;5071510;28;19904;-46
2023/03/08 02:58:18;;;;;;;;;;;;;;;;;;5071247;28;19912;-44
2023/03/08 03:00:44;;;;;;;;;;;;;;;;;;5066768;28;20002;-46
2023/03/08 03:03:10;;;;;;;;;;;;;;;;;;5048506;28;19962;-44
2023/03/08 03:05:36;;;;;;;;;;;;;;;;;;5051004;28;19905;-44
2023/03/08 03:08:02;;;;;;;;;;;;;;;;;;5051396;28;19908;-44
2023/03/08 03:10:27;;;;;;;;;;;;;;;;;;5050265;28;19986;-45
2023/03/08 03:12:53;;;;;;;;;;;;;;;;;;5051671;28;20369;-43
2023/03/08 03:15:19;;;;;;;;;;;;;;;;;;5050519;28;19913;-44
2023/03/08 03:17:45;;;;;;;;;;;;;;;;;;5045420;28;19920;-44
2023/03/08 03:20:11;;;;;;;;;;;;;;;;;;5051130;28;19905;-45
2023/03/08 03:22:37;;;;;;;;;;;;;;;;;;5051146;28;20515;-44
2023/03/08 03:25:03;;;;;;;;;;;;;;;;;;5051342;28;19904;-44
2023/03/08 03:27:29;;;;;;;;;;;;;;;;;;5050971;28;19950;-44
2023/03/08 03:29:54;;;;;;;;;;;;;;;;;;5065064;28;19920;-44
2023/03/08 03:32:20;;;;;;;;;;;;;;;;;;5070589;28;20247;-44
2023/03/08 03:34:46;;;;;;;;;;;;;;;;;;5059019;28;19917;-43
2023/03/08 03:37:14;;;;;;;;;;;;;;;;;;5041654;28;19905;-44
2023/03/08 03:39:40;;;;;;;;;;;;;;;;;;5050228;28;19908;-44
2023/03/08 03:42:06;;;;;;;;;;;;;;;;;;5038697;28;20245;-44
2023/03/08 03:44:32;;;;;;;;;;;;;;;;;;5053069;28;19900;-44
2023/03/08 03:46:58;;;;;;;;;;;;;;;;;;5054464;28;19979;-44
2023/03/08 03:49:23;;;;;;;;;;;;;;;;;;5053081;28;19999;-45
2023/03/08 03:51:49;;;;;;;;;;;;;;;;;;5054575;28;19912;-44
2023/03/08 03:54:15;;;;;;;;;;;;;;;;;;5039227;28;19909;-44
2023/03/08 03:56:41;;;;;;;;;;;;;;;;;;5054148;28;19905;-44
2023/03/08 03:59:07;;;;;;;;;;;;;;;;;;5054606;28;19912;-44
2023/03/08 04:01:33;;;;;;;;;;;;;;;;;;5053379;28;20050;-44
2023/03/08 04:03:59;;;;;;;;;;;;;;;;;;5054450;28;19908;-44
2023/03/08 04:06:25;;;;;;;;;;;;;;;;;;5053024;28;20024;-44
2023/03/08 04:08:50;;;;;;;;;;;;;;;;;;5053681;28;19905;-44
2023/03/08 04:11:16;;;;;;;;;;;;;;;;;;5052893;28;20282;-44
2023/03/08 04:13:42;;;;;;;;;;;;;;;;;;5054049;28;20038;-45
2023/03/08 04:16:08;;;;;;;;;;;;;;;;;;5053304;28;20313;-44
2023/03/08 04:18:34;;;;;;;;;;;;;;;;;;5053461;28;19905;-45
2023/03/08 04:21:00;;;;;;;;;;;;;;;;;;5053518;28;20267;-45
2023/03/08 04:23:26;;;;;;;;;;;;;;;;;;5053158;28;19953;-45
2023/03/08 04:25:52;;;;;;;;;;;;;;;;;;5053368;28;19912;-45
2023/03/08 04:28:17;;;;;;;;;;;;;;;;;;5053432;28;19927;-45
2023/03/08 04:30:43;;;;;;;;;;;;;;;;;;5047567;28;20011;-45
2023/03/08 04:33:09;;;;;;;;;;;;;;;;;;5053679;28;19913;-44
2023/03/08 04:35:35;;;;;;;;;;;;;;;;;;5059573;28;19912;-44
2023/03/08 04:38:01;;;;;;;;;;;;;;;;;;5073712;28;19998;-45
2023/03/08 04:40:27;;;;;;;;;;;;;;;;;;5072909;28;20263;-44
2023/03/08 04:42:53;;;;;;;;;;;;;;;;;;5074095;28;19904;-44
2023/03/08 04:45:18;;;;;;;;;;;;;;;;;;5072443;28;20359;-44
2023/03/08 04:47:44;;;;;;;;;;;;;;;;;;5085235;28;19942;-44
2023/03/08 04:50:10;;;;;;;;;;;;;;;;;;5092552;28;19954;-44
2023/03/08 04:52:36;;;;;;;;;;;;;;;;;;5080912;28;19934;-44
2023/03/08 04:55:02;;;;;;;;;;;;;;;;;;5093579;28;19911;-46
2023/03/08 04:57:28;;;;;;;;;;;;;;;;;;5093007;28;20364;-44
2023/03/08 04:59:54;;;;;;;;;;;;;;;;;;5093485;28;19934;-45
2023/03/08 05:02:19;;;;;;;;;;;;;;;;;;5093113;28;19998;-47
2023/03/08 05:04:45;;;;;;;;;;;;;;;;;;5093079;28;19964;-45
2023/03/08 05:07:11;;;;;;;;;;;;;;;;;;5085348;28;19912;-45
2023/03/08 05:09:37;;;;;;;;;;;;;;;;;;5070456;28;20422;-44
2023/03/08 05:12:03;;;;;;;;;;;;;;;;;;5073394;28;19908;-44
2023/03/08 05:14:29;;;;;;;;;;;;;;;;;;5072107;28;20339;-46
2023/03/08 05:16:55;;;;;;;;;;;;;;;;;;5073362;28;19912;-44
2023/03/08 05:19:20;;;;;;;;;;;;;;;;;;5071627;28;19999;-46
2023/03/08 05:21:46;;;;;;;;;;;;;;;;;;5073258;28;19904;-45
2023/03/08 05:24:12;;;;;;;;;;;;;;;;;;5072905;28;19908;-45
2023/03/08 05:26:38;;;;;;;;;;;;;;;;;;5066312;28;20422;-44
2023/03/08 05:29:05;;;;;;;;;;;;;;;;;;5079844;28;19911;-44
2023/03/08 05:31:31;;;;;;;;;;;;;;;;;;5091947;28;20550;-44
2023/03/08 05:33:57;;;;;;;;;;;;;;;;;;5093248;28;20002;-44
2023/03/08 05:36:23;;;;;;;;;;;;;;;;;;5091547;28;19946;-44
2023/03/08 05:38:49;;;;;;;;;;;;;;;;;;5093124;28;19915;-44
2023/03/08 05:41:14;;;;;;;;;;;;;;;;;;5092036;28;19904;-46
2023/03/08 05:43:40;;;;;;;;;;;;;;;;;;5077950;28;19908;-44
2023/03/08 05:46:06;;;;;;;;;;;;;;;;;;5059521;28;19905;-44
2023/03/08 05:48:32;;;;;;;;;;;;;;;;;;5067240;28;20518;-45
2023/03/08 05:50:58;;;;;;;;;;;;;;;;;;5055394;28;19916;-44
2023/03/08 05:53:24;;;;;;;;;;;;;;;;;;5081594;28;19960;-45
2023/03/08 05:55:50;;;;;;;;;;;;;;;;;;5071707;28;19905;-44
2023/03/08 05:58:16;;;;;;;;;;;;;;;;;;5071575;28;19908;-44
2023/03/08 06:00:41;;;;;;;;;;;;;;;;;;5071493;28;19911;-44
2023/03/08 06:03:07;;;;;;;;;;;;;;;;;;5057555;28;19908;-44
2023/03/08 06:05:33;;;;;;;;;;;;;;;;;;5070059;28;20711;-45
2023/03/08 06:07:59;;;;;;;;;;;;;;;;;;5071301;28;20000;-44
2023/03/08 06:10:25;;;;;;;;;;;;;;;;;;5070034;28;19912;-46
2023/03/08 06:12:51;;;;;;;;;;;;;;;;;;5071649;28;20011;-44
2023/03/08 06:15:17;;;;;;;;;;;;;;;;;;5070002;28;19919;-44
2023/03/08 06:17:43;;;;;;;;;;;;;;;;;;5071463;28;20317;-44
2023/03/08 06:20:09;;;;;;;;;;;;;;;;;;5071196;28;20468;-45
2023/03/08 06:22:35;;;;;;;;;;;;;;;;;;5071172;28;19904;-46
2023/03/08 06:25:00;;;;;;;;;;;;;;;;;;5071408;28;20279;-44
2023/03/08 06:27:26;;;;;;;;;;;;;;;;;;5070814;28;19987;-44
2023/03/08 06:29:52;;;;;;;;;;;;;;;;;;5074075;28;19919;-45
2023/03/08 06:32:18;;;;;;;;;;;;;;;;;;5065978;28;19923;-46
2023/03/08 06:34:45;;;;;;;;;;;;;;;;;;5077602;28;19908;-44
2023/03/08 06:37:11;;;;;;;;;;;;;;;;;;5056039;28;19915;-45
2023/03/08 06:39:37;;;;;;;;;;;;;;;;;;5074110;28;19912;-43
2023/03/08 06:42:03;;;;;;;;;;;;;;;;;;5081916;28;20359;-44
2023/03/08 06:44:29;;;;;;;;;;;;;;;;;;5088879;28;19923;-46
2023/03/08 06:46:55;;;;;;;;;;;;;;;;;;5084892;28;19922;-45
2023/03/08 06:49:21;;;;;;;;;;;;;;;;;;5090205;28;20006;-43
2023/03/08 06:51:47;;;;;;;;;;;;;;;;;;5064276;28;19962;-43
2023/03/08 06:54:16;;;;;;;;;;;;;;;;;;5090682;28;19911;-45
2023/03/08 06:56:42;;;;;;;;;;;;;;;;;;5091171;28;20322;-44
2023/03/08 06:59:08;;;;;;;;;;;;;;;;;;5087810;28;19983;-45
2023/03/08 07:01:33;;;;;;;;;;;;;;;;;;5066790;28;19931;-44
2023/03/08 07:03:59;;;;;;;;;;;;;;;;;;5070105;28;19962;-45
2023/03/08 07:06:25;;;;;;;;;;;;;;;;;;5070627;28;19904;-47
2023/03/08 07:08:51;;;;;;;;;;;;;;;;;;5071633;28;19995;-44
2023/03/08 07:11:17;;;;;;;;;;;;;;;;;;5070463;28;20010;-47
2023/03/08 07:13:43;;;;;;;;;;;;;;;;;;5073374;28;19912;-44
2023/03/08 07:16:09;;;;;;;;;;;;;;;;;;5079302;28;19962;-45
2023/03/08 07:18:35;;;;;;;;;;;;;;;;;;5067632;28;20350;-45
2023/03/08 07:21:01;;;;;;;;;;;;;;;;;;5073213;28;19941;-45
2023/03/08 07:23:26;;;;;;;;;;;;;;;;;;5074795;28;20373;-47
2023/03/08 07:25:52;;;;;;;;;;;;;;;;;;5056625;28;19962;-43
2023/03/08 07:28:18;;;;;;;;;;;;;;;;;;5070740;28;19911;-42
2023/03/08 07:30:44;;;;;;;;;;;;;;;;;;5072836;28;19978;-43
2023/03/08 07:33:10;;;;;;;;;;;;;;;;;;5074336;28;19912;-43
2023/03/08 07:35:36;;;;;;;;;;;;;;;;;;5066151;28;20238;-42
2023/03/08 07:38:02;;;;;;;;;;;;;;;;;;5074826;28;19954;-43
2023/03/08 07:40:28;;;;;;;;;;;;;;;;;;5073807;28;19905;-44
2023/03/08 07:42:53;;;;;;;;;;;;;;;;;;5069066;28;20343;-43
2023/03/08 07:45:19;;;;;;;;;;;;;;;;;;5073508;28;19908;-47
2023/03/08 07:47:45;;;;;;;;;;;;;;;;;;5073931;28;19924;-43
2023/03/08 07:50:11;;;;;;;;;;;;;;;;;;5076840;28;20393;-44
2023/03/08 07:52:37;;;;;;;;;;;;;;;;;;5058306;28;19971;-43
2023/03/08 07:55:03;;;;;;;;;;;;;;;;;;5069730;28;19904;-43
2023/03/08 07:57:29;;;;;;;;;;;;;;;;;;5062728;28;19931;-42
2023/03/08 07:59:55;;;;;;;;;;;;;;;;;;5073807;28;19969;-43
2023/03/08 08:02:21;;;;;;;;;;;;;;;;;;5073605;28;19904;-43
2023/03/08 08:04:46;;;;;;;;;;;;;;;;;;5073544;28;19982;-43
2023/03/08 08:07:12;;;;;;;;;;;;;;;;;;5070016;28;19966;-43
2023/03/08 08:09:38;;;;;;;;;;;;;;;;;;5064089;28;20359;-43
2023/03/08 08:12:04;;;;;;;;;;;;;;;;;;5072501;28;19947;-43
2023/03/08 08:14:30;;;;;;;;;;;;;;;;;;5071909;28;20355;-44
2023/03/08 08:16:56;;;;;;;;;;;;;;;;;;5073781;28;20358;-43
2023/03/08 08:19:22;;;;;;;;;;;;;;;;;;5071642;28;19943;-43
2023/03/08 08:21:48;;;;;;;;;;;;;;;;;;5074062;28;20354;-43
2023/03/08 08:24:13;;;;;;;;;;;;;;;;;;5073278;28;19905;-47
2023/03/08 08:26:39;;;;;;;;;;;;;;;;;;5054509;28;19908;-45
2023/03/08 08:29:05;;;;;;;;;;;;;;;;;;5074810;28;19912;-42
2023/03/08 08:31:31;;;;;;;;;;;;;;;;;;5071024;28;20366;-42
2023/03/08 08:33:58;;;;;;;;;;;;;;;;;;5073230;28;19947;-44
2023/03/08 08:36:23;;;;;;;;;;;;;;;;;;5071931;28;19983;-44
2023/03/08 08:38:49;;;;;;;;;;;;;;;;;;5072558;28;20054;-44
2023/03/08 08:41:15;;;;;;;;;;;;;;;;;;5072200;28;19904;-47
2023/03/08 08:43:41;;;;;;;;;;;;;;;;;;5072875;28;19904;-44
2023/03/08 08:46:07;;;;;;;;;;;;;;;;;;5073056;28;19909;-46
2023/03/08 08:48:33;;;;;;;;;;;;;;;;;;5071730;28;19999;-45
2023/03/08 08:50:59;;;;;;;;;;;;;;;;;;5073028;28;19912;-44
2023/03/08 08:53:25;;;;;;;;;;;;;;;;;;5072594;28;19934;-44
2023/03/08 08:55:51;;;;;;;;;;;;;;;;;;5072421;28;19904;-46
2023/03/08 08:58:17;;;;;;;;;;;;;;;;;;5070401;28;19912;-45
2023/03/08 09:00:43;;;;;;;;;;;;;;;;;;5063760;28;19955;-44
2023/03/08 09:03:09;;;;;;;;;;;;;;;;;;5073149;28;20293;-44
2023/03/08 09:05:35;;;;;;;;;;;;;;;;;;5070572;28;20461;-44
2023/03/08 09:08:01;;;;;;;;;;;;;;;;;;5054930;28;19944;-42
2023/03/08 09:10:27;;;;;;;;;;;;;;;;;;5071623;28;19909;-42
2023/03/08 09:12:52;;;;;;;;;;;;;;;;;;5072772;28;19908;-44
2023/03/08 09:15:20;;;;;;;;;;;;;;;;;;5071721;28;20003;-44
2023/03/08 09:17:46;;;;;;;;;;;;;;;;;;5072095;28;19915;-42
2023/03/08 09:20:12;;;;;;;;;;;;;;;;;;5071838;28;19904;-46
2023/03/08 09:22:38;;;;;;;;;;;;;;;;;;5070813;28;19904;-47
2023/03/08 09:25:04;;;;;;;;;;;;;;;;;;5072336;28;20305;-45
2023/03/08 09:27:30;;;;;;;;;;;;;;;;;;5072411;28;19905;-44
2023/03/08 09:29:56;;;;;;;;;;;;;;;;;;5082275;28;19904;-44
2023/03/08 09:32:22;;;;;;;;;;;;;;;;;;5075395;28;20006;-44
2023/03/08 09:34:48;;;;;;;;;;;;;;;;;;5070963;28;20382;-44
2023/03/08 09:37:14;;;;;;;;;;;;;;;;;;5071391;28;19947;-42
2023/03/08 09:39:40;;;;;;;;;;;;;;;;;;5070846;28;20278;-42
2023/03/08 09:42:06;;;;;;;;;;;;;;;;;;5072366;28;19908;-42
2023/03/08 09:44:32;;;;;;;;;;;;;;;;;;5069604;28;20560;-42
2023/03/08 09:46:58;;;;;;;;;;;;;;;;;;5051705;28;20011;-41
2023/03/08 09:49:23;;;;;;;;;;;;;;;;;;5063703;28;19911;-44
2023/03/08 09:51:49;;;;;;;;;;;;;;;;;;5071332;28;19912;-45
2023/03/08 09:54:15;;;;;;;;;;;;;;;;;;5071321;28;19909;-46
2023/03/08 09:56:42;;;;;;;;;;;;;;;;;;5071579;28;19904;-46
2023/03/08 09:59:07;;;;;;;;;;;;;;;;;;5071413;28;20377;-44
2023/03/08 10:01:33;;;;;;;;;;;;;;;;;;5070785;28;19998;-44
2023/03/08 10:03:59;;;;;;;;;;;;;;;;;;5071909;28;19999;-44
2023/03/08 10:06:25;;;;;;;;;;;;;;;;;;5070679;28;19951;-44
2023/03/08 10:08:51;;;;;;;;;;;;;;;;;;5070823;28;19916;-44
2023/03/08 10:11:17;;;;;;;;;;;;;;;;;;5070530;28;20274;-44
2023/03/08 10:13:43;;;;;;;;;;;;;;;;;;5072108;28;19908;-44
2023/03/08 10:16:09;;;;;;;;;;;;;;;;;;5071370;28;19912;-44
2023/03/08 10:18:35;;;;;;;;;;;;;;;;;;5078711;28;19937;-46
2023/03/08 10:21:01;;;;;;;;;;;;;;;;;;5077981;28;19955;-45
2023/03/08 10:23:27;;;;;;;;;;;;;;;;;;5070583;28;19912;-44
2023/03/08 10:25:53;;;;;;;;;;;;;;;;;;5063844;28;20366;-44
2023/03/08 10:28:19;;;;;;;;;;;;;;;;;;5072079;28;20001;-44
2023/03/08 10:30:44;;;;;;;;;;;;;;;;;;5071614;28;19957;-45
2023/03/08 10:33:10;;;;;;;;;;;;;;;;;;5071908;28;19912;-44
2023/03/08 10:35:36;;;;;;;;;;;;;;;;;;5070509;28;20306;-44
2023/03/08 10:38:02;;;;;;;;;;;;;;;;;;5071395;28;19904;-44
2023/03/08 10:40:28;;;;;;;;;;;;;;;;;;5069978;28;19940;-44
2023/03/08 10:42:56;;;;;;;;;;;;;;;;;;5071194;28;19904;-45
2023/03/08 10:45:24;;;;;;;;;;;;;;;;;;5070460;28;19905;-45
2023/03/08 10:47:50;;;;;;;;;;;;;;;;;;5071157;28;19962;-44
2023/03/08 10:50:16;;;;;;;;;;;;;;;;;;5066739;28;19909;-44
2023/03/08 10:52:43;;;;;;;;;;;;;;;;;;5074701;28;20282;-44
2023/03/08 10:55:09;;;;;;;;;;;;;;;;;;5075300;28;20324;-44
2023/03/08 10:57:35;;;;;;;;;;;;;;;;;;5073884;28;19908;-47
2023/03/08 11:00:00;;;;;;;;;;;;;;;;;;5074983;28;19905;-47
2023/03/08 11:02:26;;;;;;;;;;;;;;;;;;5074454;28;19908;-44
2023/03/08 11:04:52;;;;;;;;;;;;;;;;;;5074984;28;19904;-45
2023/03/08 11:07:18;;;;;;;;;;;;;;;;;;5074584;28;20243;-44
2023/03/08 11:09:44;;;;;;;;;;;;;;;;;;5074861;28;19904;-44
2023/03/08 11:12:10;;;;;;;;;;;;;;;;;;5075009;28;19913;-45
2023/03/08 11:14:36;;;;;;;;;;;;;;;;;;5072939;28;20718;-45
2023/03/08 11:17:02;;;;;;;;;;;;;;;;;;5075152;28;19915;-45
2023/03/08 11:19:27;;;;;;;;;;;;;;;;;;5055736;28;19995;-44
2023/03/08 11:21:53;;;;;;;;;;;;;;;;;;5074866;28;19905;-45
2023/03/08 11:24:20;;;;;;;;;;;;;;;;;;5073910;28;19912;-44
2023/03/08 11:26:46;;;;;;;;;;;;;;;;;;5074828;28;19998;-44
2023/03/08 11:29:13;;;;;;;;;;;;;;;;;;5076309;28;20351;-45
2023/03/08 11:31:39;;;;;;;;;;;;;;;;;;5073122;28;20404;-45
2023/03/08 11:34:05;;;;;;;;;;;;;;;;;;5074847;28;19916;-46
2023/03/08 11:36:31;;;;;;;;;;;;;;;;;;5073590;28;19912;-45
2023/03/08 11:38:57;;;;;;;;;;;;;;;;;;5074775;28;19905;-45
2023/03/08 11:41:23;;;;;;;;;;;;;;;;;;5073617;28;19935;-45
2023/03/08 11:43:49;;;;;;;;;;;;;;;;;;5074506;28;19940;-45
2023/03/08 11:46:15;;;;;;;;;;;;;;;;;;5073945;28;19911;-45
2023/03/08 11:48:40;;;;;;;;;;;;;;;;;;5072829;28;20367;-45
2023/03/08 11:51:06;;;;;;;;;;;;;;;;;;5065505;28;19917;-44
2023/03/08 11:53:32;;;;;;;;;;;;;;;;;;5073285;28;20090;-44
2023/03/08 11:55:58;;;;;;;;;;;;;;;;;;5074311;28;19911;-45
2023/03/08 11:58:24;;;;;;;;;;;;;;;;;;5073611;28;19957;-44
2023/03/08 12:00:50;;;;;;;;;;;;;;;;;;5072950;28;19908;-44
2023/03/08 12:03:16;;;;;;;;;;;;;;;;;;5073317;28;20358;-45
2023/03/08 12:05:41;;;;;;;;;;;;;;;;;;5072296;28;19909;-45
2023/03/08 12:08:07;;;;;;;;;;;;;;;;;;5068882;28;19915;-44
2023/03/08 12:10:33;;;;;;;;;;;;;;;;;;5073783;28;20540;-45
2023/03/08 12:12:59;;;;;;;;;;;;;;;;;;5077868;28;19920;-45
2023/03/08 12:15:25;;;;;;;;;;;;;;;;;;5079514;28;19908;-46
2023/03/08 12:17:51;;;;;;;;;;;;;;;;;;5079679;28;19908;-46
2023/03/08 12:20:18;;;;;;;;;;;;;;;;;;5077071;28;20400;-45
2023/03/08 12:22:44;;;;;;;;;;;;;;;;;;5072893;28;20411;-44
2023/03/08 12:25:10;;;;;;;;;;;;;;;;;;5073526;28;19999;-46
2023/03/08 12:27:36;;;;;;;;;;;;;;;;;;5073197;28;19914;-44
2023/03/08 12:30:02;;;;;;;;;;;;;;;;;;5079889;28;19912;-45
2023/03/08 12:32:28;;;;;;;;;;;;;;;;;;5075850;28;20266;-44
2023/03/08 12:34:54;;;;;;;;;;;;;;;;;;5073700;28;19991;-44
2023/03/08 12:37:20;;;;;;;;;;;;;;;;;;5072840;28;20255;-45
2023/03/08 12:39:45;;;;;;;;;;;;;;;;;;5072578;28;19908;-44
2023/03/08 12:42:12;;;;;;;;;;;;;;;;;;5073229;28;19904;-46
2023/03/08 12:44:37;;;;;;;;;;;;;;;;;;5071935;28;20363;-45
2023/03/08 12:47:03;;;;;;;;;;;;;;;;;;5073086;28;19923;-44
2023/03/08 12:49:29;;;;;;;;;;;;;;;;;;5070798;28;19905;-45
2023/03/08 12:51:55;;;;;;;;;;;;;;;;;;5048155;28;19909;-45
2023/03/08 12:54:21;;;;;;;;;;;;;;;;;;5072030;28;19909;-44
2023/03/08 12:56:47;;;;;;;;;;;;;;;;;;5072048;28;19912;-45
2023/03/08 12:59:13;;;;;;;;;;;;;;;;;;5072283;28;19916;-48
2023/03/08 13:01:39;;;;;;;;;;;;;;;;;;5072215;28;19918;-45
2023/03/08 13:04:05;;;;;;;;;;;;;;;;;;5072950;28;20361;-44
2023/03/08 13:06:31;;;;;;;;;;;;;;;;;;5071626;28;19970;-46
2023/03/08 13:08:56;;;;;;;;;;;;;;;;;;5072901;28;19904;-44
2023/03/08 13:11:22;;;;;;;;;;;;;;;;;;5070733;28;19962;-44
2023/03/08 13:13:48;;;;;;;;;;;;;;;;;;5072493;28;19966;-44
2023/03/08 13:16:14;;;;;;;;;;;;;;;;;;5072079;28;19911;-45
2023/03/08 13:18:40;;;;;;;;;;;;;;;;;;5072473;28;20025;-44
2023/03/08 13:21:06;;;;;;;;;;;;;;;;;;5072582;28;19904;-43
2023/03/08 13:23:32;;;;;;;;;;;;;;;;;;5071894;28;19995;-43
2023/03/08 13:25:57;;;;;;;;;;;;;;;;;;5072307;28;19954;-45
2023/03/08 13:28:23;;;;;;;;;;;;;;;;;;5071879;28;19905;-45
2023/03/08 13:30:50;;;;;;;;;;;;;;;;;;5071116;28;20370;-44
2023/03/08 13:33:16;;;;;;;;;;;;;;;;;;5071812;28;19912;-44
2023/03/08 13:35:42;;;;;;;;;;;;;;;;;;5072037;28;19973;-44
2023/03/08 13:38:08;;;;;;;;;;;;;;;;;;5072541;28;19909;-43
2023/03/08 13:40:34;;;;;;;;;;;;;;;;;;5071162;28;19911;-44
2023/03/08 13:43:09;;;;;;;;;;;;;;;;;;5072204;28;19912;-46
2023/03/08 13:45:35;;;;;;;;;;;;;;;;;;5070801;28;19909;-44
2023/03/08 13:48:01;;;;;;;;;;;;;;;;;;5067434;28;19924;-44
2023/03/08 13:50:27;;;;;;;;;;;;;;;;;;5067899;28;19904;-44
2023/03/08 13:52:53;;;;;;;;;;;;;;;;;;5069663;28;19908;-45
2023/03/08 13:55:19;;;;;;;;;;;;;;;;;;5070814;28;20354;-43
2023/03/08 13:57:45;;;;;;;;;;;;;;;;;;5071930;28;19966;-44
2023/03/08 14:00:11;;;;;;;;;;;;;;;;;;5071418;28;19904;-43
2023/03/08 14:02:36;;;;;;;;;;;;;;;;;;5071590;28;20274;-44
2023/03/08 14:05:02;;;;;;;;;;;;;;;;;;5069985;28;20008;-46
2023/03/08 14:07:29;;;;;;;;;;;;;;;;;;5071386;28;19978;-45
2023/03/08 14:09:55;;;;;;;;;;;;;;;;;;5071516;28;19904;-45
2023/03/08 14:12:21;;;;;;;;;;;;;;;;;;5071214;28;19908;-47
2023/03/08 14:14:47;;;;;;;;;;;;;;;;;;5071109;28;19908;-44
2023/03/08 14:17:12;;;;;;;;;;;;;;;;;;5071308;28;19904;-45
2023/03/08 14:19:38;;;;;;;;;;;;;;;;;;5070711;28;20293;-44
2023/03/08 14:22:04;;;;;;;;;;;;;;;;;;5070628;28;19915;-44
2023/03/08 14:24:30;;;;;;;;;;;;;;;;;;5070235;28;19957;-45
2023/03/08 14:26:56;;;;;;;;;;;;;;;;;;5071768;28;19904;-44
2023/03/08 14:29:22;;;;;;;;;;;;;;;;;;5071747;28;20350;-45
2023/03/08 14:31:48;;;;;;;;;;;;;;;;;;5071542;28;20392;-44
2023/03/08 14:34:14;;;;;;;;;;;;;;;;;;5071391;28;19908;-45
2023/03/08 14:36:39;;;;;;;;;;;;;;;;;;5070806;28;19939;-45
2023/03/08 14:39:05;;;;;;;;;;;;;;;;;;5070841;28;20281;-45
2023/03/08 14:41:31;;;;;;;;;;;;;;;;;;5070466;28;19912;-44
2023/03/08 14:43:57;;;;;;;;;;;;;;;;;;5071491;28;19950;-46
2023/03/08 14:46:23;;;;;;;;;;;;;;;;;;5069612;28;20002;-44
2023/03/08 14:48:49;;;;;;;;;;;;;;;;;;5068849;28;19912;-45
2023/03/08 14:51:15;;;;;;;;;;;;;;;;;;5070234;28;19908;-48
2023/03/08 14:53:40;;;;;;;;;;;;;;;;;;5068905;28;19908;-44
2023/03/08 14:56:06;;;;;;;;;;;;;;;;;;5069706;28;19909;-46
2023/03/08 14:58:32;;;;;;;;;;;;;;;;;;5069582;28;19911;-44
2023/03/08 15:01:01;;;;;;;;;;;;;;;;;;5070127;28;19905;-45
2023/03/08 15:03:27;;;;;;;;;;;;;;;;;;5070549;28;19905;-44
2023/03/08 15:05:53;;;;;;;;;;;;;;;;;;5070967;28;20274;-45
2023/03/08 15:08:19;;;;;;;;;;;;;;;;;;5069934;28;19908;-44
2023/03/08 15:10:45;;;;;;;;;;;;;;;;;;5060154;28;19920;-43
2023/03/08 15:13:11;;;;;;;;;;;;;;;;;;5073473;28;20058;-45
2023/03/08 15:15:37;;;;;;;;;;;;;;;;;;5071418;28;19908;-44
2023/03/08 15:18:03;;;;;;;;;;;;;;;;;;5071100;28;19912;-44
2023/03/08 15:20:29;;;;;;;;;;;;;;;;;;5073357;28;19919;-47
2023/03/08 15:22:55;;;;;;;;;;;;;;;;;;5082375;28;19934;-44
2023/03/08 15:25:21;;;;;;;;;;;;;;;;;;5068259;28;19908;-44
2023/03/08 15:27:47;;;;;;;;;;;;;;;;;;5069907;28;19904;-46
2023/03/08 15:30:12;;;;;;;;;;;;;;;;;;5066631;28;19914;-44
2023/03/08 15:32:38;;;;;;;;;;;;;;;;;;5070331;28;19961;-45
2023/03/08 15:35:04;;;;;;;;;;;;;;;;;;5061913;28;20379;-44
2023/03/08 15:37:30;;;;;;;;;;;;;;;;;;5073131;28;19908;-44
2023/03/08 15:39:56;;;;;;;;;;;;;;;;;;5070780;28;19912;-44
2023/03/08 15:42:22;;;;;;;;;;;;;;;;;;5073564;28;19952;-44
2023/03/08 15:44:48;;;;;;;;;;;;;;;;;;5068750;28;19958;-44
2023/03/08 15:47:13;;;;;;;;;;;;;;;;;;5071882;28;20288;-45
2023/03/08 15:49:39;;;;;;;;;;;;;;;;;;5071263;28;19954;-47
2023/03/08 15:52:05;;;;;;;;;;;;;;;;;;5072807;28;19912;-44
2023/03/08 15:54:31;;;;;;;;;;;;;;;;;;5063716;28;19908;-45
2023/03/08 15:56:58;;;;;;;;;;;;;;;;;;5073417;28;19905;-44
2023/03/08 15:59:24;;;;;;;;;;;;;;;;;;5071306;28;19904;-42
2023/03/08 16:01:49;;;;;;;;;;;;;;;;;;5073222;28;19904;-45
2023/03/08 16:04:15;;;;;;;;;;;;;;;;;;5071059;28;20425;-46
2023/03/08 16:06:42;;;;;;;;;;;;;;;;;;5072670;28;19904;-44
2023/03/08 16:09:08;;;;;;;;;;;;;;;;;;5071694;28;19908;-46
2023/03/08 16:11:34;;;;;;;;;;;;;;;;;;5071595;28;19916;-45
2023/03/08 16:14:00;;;;;;;;;;;;;;;;;;5071695;28;19908;-49
2023/03/08 16:16:26;;;;;;;;;;;;;;;;;;5071739;28;20347;-44
2023/03/08 16:18:52;;;;;;;;;;;;;;;;;;5071801;28;19905;-47
2023/03/08 16:21:17;;;;;;;;;;;;;;;;;;5070800;28;19905;-44
2023/03/08 16:23:43;;;;;;;;;;;;;;;;;;5068294;28;19965;-44
2023/03/08 16:26:09;;;;;;;;;;;;;;;;;;5070773;28;19918;-44
2023/03/08 16:28:36;;;;;;;;;;;;;;;;;;5071675;28;20343;-44
2023/03/08 16:31:01;;;;;;;;;;;;;;;;;;5071731;28;20315;-44
2023/03/08 16:33:27;;;;;;;;;;;;;;;;;;5070084;28;20007;-45
2023/03/08 16:35:53;;;;;;;;;;;;;;;;;;5064450;28;19905;-45